Time;durP1;ratioP1;P1;durP2;ratioP2;P2;SDS_P1;SDS_P2;PMS_P1;PMS_P2;Temp;Humidity;BMP_temperature;BMP_pressure;BME280_temperature;BME280_humidity;BME280_pressure;Samples;Min_cycle;Max_cycle;Signal;HPM_P1;HPM_P2
2021/01/30 00:00:46;;;;;;;1.45;0.80;;;16.10;64.10;;;;;;6338373;22;19999;-73
2021/01/30 00:03:13;;;;;;;1.48;0.77;;;16.10;64.10;;;;;;6337998;22;20077;-73
2021/01/30 00:05:39;;;;;;;0.57;0.50;;;16.10;64.10;;;;;;6336338;22;20097;-73
2021/01/30 00:08:06;;;;;;;0.60;0.60;;;16.10;64.10;;;;;;6338224;22;20010;-73
2021/01/30 00:10:32;;;;;;;1.23;0.77;;;16.10;64.10;;;;;;6363006;22;20439;-73
2021/01/30 00:12:58;;;;;;;2.10;0.63;;;16.10;64.00;;;;;;6338123;22;20077;-72
2021/01/30 00:15:26;;;;;;;0.77;0.65;;;16.20;64.10;;;;;;6337693;22;20022;-73
2021/01/30 00:17:53;;;;;;;0.90;0.80;;;16.10;64.10;;;;;;6335761;22;20436;-73
2021/01/30 00:20:30;;;;;;;0.60;0.60;;;16.10;64.10;;;;;;6335883;22;20011;-73
2021/01/30 00:22:56;;;;;;;1.00;0.80;;;16.10;64.10;;;;;;6338502;22;20058;-77
2021/01/30 00:25:28;;;;;;;2.53;1.10;;;16.10;64.10;;;;;;6336650;22;20037;-73
2021/01/30 00:27:55;;;;;;;0.80;0.75;;;16.10;64.10;;;;;;6337685;22;20420;-73
2021/01/30 00:30:23;;;;;;;0.63;0.50;;;16.10;64.10;;;;;;6336873;22;20328;-72
2021/01/30 00:32:49;;;;;;;1.50;0.73;;;16.10;64.10;;;;;;6336080;22;19995;-73
2021/01/30 00:35:16;;;;;;;2.30;0.65;;;16.10;64.10;;;;;;6338094;22;20010;-73
2021/01/30 00:37:41;;;;;;;0.57;0.52;;;16.10;64.10;;;;;;6337958;22;20014;-73
2021/01/30 00:40:08;;;;;;;1.50;0.60;;;16.10;64.10;;;;;;6337713;22;19999;-72
2021/01/30 00:42:35;;;;;;;1.40;0.65;;;16.10;64.10;;;;;;6337675;22;20413;-72
2021/01/30 00:45:02;;;;;;;2.17;0.82;;;16.10;64.10;;;;;;6337780;22;20003;-72
2021/01/30 00:47:27;;;;;;;0.95;0.60;;;16.10;64.10;;;;;;6337829;22;20003;-72
2021/01/30 00:49:53;;;;;;;1.13;0.57;;;16.10;64.10;;;;;;6336231;22;20010;-72
2021/01/30 00:52:20;;;;;;;0.52;0.52;;;16.10;64.10;;;;;;6337775;22;20409;-72
2021/01/30 00:54:46;;;;;;;0.88;0.60;;;16.10;64.10;;;;;;6338205;22;20068;-72
2021/01/30 00:57:12;;;;;;;1.08;0.60;;;16.10;64.10;;;;;;6309997;22;20409;-72
2021/01/30 00:59:41;;;;;;;0.68;0.60;;;16.10;64.10;;;;;;6337463;22;19998;-72
2021/01/30 01:02:07;;;;;;;1.05;0.60;;;16.10;64.10;;;;;;6337619;22;19991;-72
2021/01/30 01:04:33;;;;;;;1.70;0.70;;;16.10;64.10;;;;;;6337663;22;20440;-72
2021/01/30 01:06:58;;;;;;;0.57;0.52;;;16.10;64.10;;;;;;6337421;22;20006;-72
2021/01/30 01:09:24;;;;;;;0.88;0.63;;;16.10;64.10;;;;;;6336520;22;20002;-72
2021/01/30 01:11:51;;;;;;;0.80;0.80;;;16.10;64.10;;;;;;6310121;22;20009;-72
2021/01/30 01:14:20;;;;;;;0.50;0.50;;;16.10;64.10;;;;;;6335840;22;20002;-73
2021/01/30 01:16:45;;;;;;;0.70;0.70;;;16.10;64.10;;;;;;6337974;22;20435;-72
2021/01/30 01:19:12;;;;;;;0.57;0.52;;;16.10;64.10;;;;;;6336056;22;19999;-72
2021/01/30 01:21:38;;;;;;;1.23;0.68;;;16.10;64.10;;;;;;6309969;22;20006;-72
2021/01/30 01:24:04;;;;;;;1.17;0.52;;;16.10;64.10;;;;;;6337320;22;20348;-72
2021/01/30 01:26:30;;;;;;;0.50;0.47;;;16.10;64.10;;;;;;6336576;22;19999;-72
2021/01/30 01:28:55;;;;;;;0.55;0.55;;;16.10;64.10;;;;;;6336030;22;20010;-72
2021/01/30 01:31:21;;;;;;;0.40;0.40;;;16.10;64.10;;;;;;6336899;22;20094;-73
2021/01/30 01:33:47;;;;;;;1.35;0.70;;;16.10;64.10;;;;;;6338963;22;19998;-72
2021/01/30 01:36:15;;;;;;;0.82;0.82;;;16.10;64.10;;;;;;6339638;22;20087;-72
2021/01/30 01:38:41;;;;;;;1.17;0.70;;;16.10;64.10;;;;;;6339458;22;20081;-72
2021/01/30 01:41:07;;;;;;;0.95;0.47;;;16.10;64.10;;;;;;6311424;22;20076;-72
2021/01/30 01:43:33;;;;;;;1.02;0.70;;;16.10;64.10;;;;;;6339130;22;20002;-72
2021/01/30 01:46:11;;;;;;;1.23;0.60;;;16.10;64.10;;;;;;6310491;22;20007;-72
2021/01/30 01:48:57;;;;;;;0.95;0.70;;;16.10;64.10;;;;;;6338513;22;19994;-72
2021/01/30 01:51:34;;;;;;;1.75;0.50;;;16.10;64.10;;;;;;6310166;22;19999;-72
2021/01/30 01:54:05;;;;;;;1.23;0.60;;;16.10;64.10;;;;;;6338361;22;20056;-72
2021/01/30 01:56:32;;;;;;;0.98;0.60;;;16.10;64.10;;;;;;6338694;22;19999;-72
2021/01/30 01:59:04;;;;;;;0.87;0.57;;;16.10;64.10;;;;;;6338280;22;20709;-72
2021/01/30 02:01:31;;;;;;;0.90;0.60;;;16.10;64.10;;;;;;6337811;22;20259;-72
2021/01/30 02:03:58;;;;;;;0.63;0.50;;;16.10;64.10;;;;;;6310926;22;20137;-72
2021/01/30 02:06:24;;;;;;;0.75;0.52;;;16.10;64.10;;;;;;6310714;22;19999;-72
2021/01/30 02:08:50;;;;;;;1.17;0.70;;;16.10;64.10;;;;;;6310812;22;20347;-72
2021/01/30 02:11:17;;;;;;;2.50;0.63;;;16.10;64.10;;;;;;6338315;22;19999;-72
2021/01/30 02:13:50;;;;;;;2.10;0.80;;;16.10;64.10;;;;;;6310858;22;19999;-72
2021/01/30 02:16:30;;;;;;;0.90;0.50;;;16.10;64.10;;;;;;6338940;22;20073;-72
2021/01/30 02:19:31;;;;;;;1.40;1.08;;;16.10;64.10;;;;;;6339018;22;20033;-72
2021/01/30 02:22:15;;;;;;;1.63;0.70;;;16.10;64.10;;;;;;6339112;22;20002;-73
2021/01/30 02:25:02;;;;;;;0.40;0.40;;;16.10;64.10;;;;;;6311723;22;20057;-73
2021/01/30 02:28:02;;;;;;;1.03;0.47;;;16.10;64.10;;;;;;6338846;22;20082;-73
2021/01/30 02:30:39;;;;;;;0.70;0.70;;;16.10;64.10;;;;;;6337224;22;20009;-73
2021/01/30 02:33:42;;;;;;;1.40;0.90;;;16.10;64.10;;;;;;6311386;22;20002;-73
2021/01/30 02:36:28;;;;;;;0.55;0.40;;;16.00;64.10;;;;;;6338011;22;20018;-73
2021/01/30 02:39:19;;;;;;;1.25;0.45;;;16.10;64.10;;;;;;6338385;22;20022;-73
2021/01/30 02:42:13;;;;;;;0.43;0.40;;;16.10;64.10;;;;;;6300736;22;19999;-73
2021/01/30 02:44:43;;;;;;;0.63;0.40;;;16.10;64.10;;;;;;6302049;22;20006;-73
2021/01/30 02:47:12;;;;;;;0.52;0.38;;;16.10;64.10;;;;;;6338889;22;19998;-73
2021/01/30 02:49:46;;;;;;;1.05;0.45;;;16.10;64.10;;;;;;6338990;22;20380;-73
2021/01/30 02:52:18;;;;;;;0.65;0.45;;;16.00;64.10;;;;;;6338544;22;20030;-73
2021/01/30 02:54:45;;;;;;;1.33;0.40;;;16.10;64.10;;;;;;6338959;22;20002;-73
2021/01/30 02:57:14;;;;;;;0.98;0.60;;;16.00;64.10;;;;;;6338735;22;20412;-73
2021/01/30 02:59:53;;;;;;;0.68;0.45;;;16.00;64.10;;;;;;6310076;22;20014;-73
2021/01/30 03:02:23;;;;;;;1.67;0.60;;;16.10;64.00;;;;;;6338340;22;20487;-73
2021/01/30 03:04:54;;;;;;;0.98;0.57;;;16.10;64.00;;;;;;6336908;22;20010;-73
2021/01/30 03:07:51;;;;;;;0.47;0.47;;;16.10;64.10;;;;;;6338129;22;20036;-73
2021/01/30 03:10:26;;;;;;;;;;;16.10;64.10;;;;;;6290135;22;20022;-73
2021/01/30 03:12:58;;;;;;;1.55;0.55;;;16.10;64.10;;;;;;6338325;22;19903;-73
2021/01/30 03:15:37;;;;;;;1.02;0.45;;;16.10;64.10;;;;;;6338131;22;20078;-73
2021/01/30 03:18:05;;;;;;;0.93;0.50;;;16.00;64.10;;;;;;6338123;22;19999;-73
2021/01/30 03:20:33;;;;;;;0.40;0.40;;;16.10;64.10;;;;;;6338357;22;20006;-73
2021/01/30 03:23:01;;;;;;;0.70;0.43;;;16.10;64.10;;;;;;6338156;22;20002;-73
2021/01/30 03:25:28;;;;;;;1.00;0.60;;;16.00;64.00;;;;;;6338231;22;20007;-73
2021/01/30 03:27:59;;;;;;;0.97;0.60;;;16.00;64.10;;;;;;6310545;22;20002;-73
2021/01/30 03:30:25;;;;;;;1.13;0.40;;;16.00;64.10;;;;;;6337356;22;20354;-73
2021/01/30 03:32:51;;;;;;;3.03;0.70;;;16.00;64.10;;;;;;6338185;22;20014;-73
2021/01/30 03:35:18;;;;;;;0.75;0.50;;;16.00;64.00;;;;;;6311312;22;20329;-73
2021/01/30 03:37:43;;;;;;;0.40;0.38;;;16.10;64.10;;;;;;6338172;22;20001;-73
2021/01/30 03:40:11;;;;;;;0.30;0.30;;;16.00;64.00;;;;;;6336702;22;20082;-73
2021/01/30 03:42:38;;;;;;;0.40;0.40;;;16.00;64.00;;;;;;6338648;22;20400;-73
2021/01/30 03:45:10;;;;;;;0.40;0.40;;;16.00;64.00;;;;;;6337852;22;19999;-73
2021/01/30 03:47:36;;;;;;;0.47;0.40;;;16.00;64.00;;;;;;6338470;22;19995;-73
2021/01/30 03:50:05;;;;;;;0.60;0.60;;;16.10;64.00;;;;;;6310816;22;19999;-73
2021/01/30 03:52:31;;;;;;;0.50;0.47;;;16.00;64.00;;;;;;6337860;22;20434;-73
2021/01/30 03:54:57;;;;;;;0.55;0.40;;;16.00;64.00;;;;;;6336366;22;20007;-73
2021/01/30 03:57:22;;;;;;;1.23;0.70;;;16.00;64.00;;;;;;6310408;22;20446;-73
2021/01/30 03:59:49;;;;;;;0.65;0.50;;;16.00;64.00;;;;;;6338399;22;20002;-73
2021/01/30 04:02:15;;;;;;;0.40;0.40;;;16.00;64.00;;;;;;6310503;22;20003;-73
2021/01/30 04:04:46;;;;;;;0.88;0.40;;;16.00;64.00;;;;;;6310550;22;20439;-73
2021/01/30 04:07:13;;;;;;;0.40;0.40;;;16.00;64.00;;;;;;6310586;22;20003;-73
2021/01/30 04:09:39;;;;;;;0.82;0.47;;;16.00;64.00;;;;;;6338295;22;20056;-75
2021/01/30 04:12:05;;;;;;;0.60;0.40;;;16.10;64.00;;;;;;6310412;22;20363;-72
2021/01/30 04:14:32;;;;;;;0.85;0.75;;;16.00;64.00;;;;;;6309485;22;20343;-72
2021/01/30 04:16:58;;;;;;;0.63;0.50;;;16.00;64.00;;;;;;6336081;22;20010;-70
2021/01/30 04:19:23;;;;;;;1.77;0.47;;;16.00;64.00;;;;;;6284625;22;20430;-71
2021/01/30 04:21:49;;;;;;;0.63;0.50;;;16.00;64.10;;;;;;6337664;22;19999;-71
2021/01/30 04:24:15;;;;;;;1.05;0.57;;;16.00;64.00;;;;;;6338429;22;19999;-71
2021/01/30 04:26:44;;;;;;;0.50;0.35;;;16.00;64.00;;;;;;6309999;22;20009;-71
2021/01/30 04:29:10;;;;;;;0.55;0.55;;;16.00;64.00;;;;;;6337497;22;19995;-71
2021/01/30 04:31:35;;;;;;;0.65;0.50;;;16.00;64.00;;;;;;6337926;22;20009;-71
2021/01/30 04:34:01;;;;;;;1.05;0.52;;;16.00;64.00;;;;;;6337618;22;20060;-70
2021/01/30 04:36:27;;;;;;;0.35;0.35;;;16.00;64.00;;;;;;6339376;22;20055;-72
2021/01/30 04:38:53;;;;;;;0.85;0.65;;;16.00;64.00;;;;;;6336835;22;20439;-71
2021/01/30 04:41:39;;;;;;;0.38;0.38;;;16.00;64.00;;;;;;6337945;22;20003;-72
2021/01/30 04:44:28;;;;;;;1.23;0.75;;;16.00;64.00;;;;;;6337706;22;20006;-72
2021/01/30 04:47:18;;;;;;;0.30;0.30;;;16.00;64.00;;;;;;6323589;22;20436;-71
2021/01/30 04:49:51;;;;;;;0.68;0.40;;;16.00;64.00;;;;;;6336176;22;20471;-71
2021/01/30 04:52:48;;;;;;;0.95;0.50;;;16.00;64.00;;;;;;6335873;22;20023;-71
2021/01/30 04:55:45;;;;;;;0.30;0.30;;;16.00;64.00;;;;;;6337447;22;20378;-71
2021/01/30 04:58:23;;;;;;;0.75;0.55;;;16.00;64.00;;;;;;6336208;22;19995;-71
2021/01/30 05:01:10;;;;;;;0.32;0.32;;;16.00;64.00;;;;;;6337281;22;19991;-71
2021/01/30 05:04:08;;;;;;;1.80;0.70;;;16.00;64.00;;;;;;6338235;22;19999;-71
2021/01/30 05:07:04;;;;;;;1.45;0.68;;;16.00;64.00;;;;;;6299636;22;19998;-71
2021/01/30 05:09:56;;;;;;;0.60;0.50;;;16.00;64.00;;;;;;6339267;22;19999;-71
2021/01/30 05:12:32;;;;;;;1.48;0.50;;;16.00;64.00;;;;;;6312410;22;20003;-71
2021/01/30 05:15:15;;;;;;;0.35;0.32;;;16.00;64.10;;;;;;6339654;22;20328;-71
2021/01/30 05:18:03;;;;;;;0.35;0.35;;;16.00;64.00;;;;;;6312286;22;20022;-71
2021/01/30 05:20:35;;;;;;;0.95;0.52;;;16.00;64.00;;;;;;6339248;22;20002;-71
2021/01/30 05:23:04;;;;;;;0.50;0.40;;;16.00;64.00;;;;;;6311477;22;20309;-71
2021/01/30 05:25:30;;;;;;;0.93;0.40;;;16.00;64.00;;;;;;6339615;22;20002;-71
2021/01/30 05:28:19;;;;;;;1.15;0.43;;;16.00;64.00;;;;;;6339597;22;20049;-71
2021/01/30 05:30:50;;;;;;;1.02;0.38;;;16.00;64.00;;;;;;6339295;22;19999;-71
2021/01/30 05:33:16;;;;;;;0.57;0.50;;;16.00;64.00;;;;;;6339684;22;19999;-71
2021/01/30 05:36:00;;;;;;;0.43;0.40;;;16.00;64.00;;;;;;6337846;22;20042;-71
2021/01/30 05:38:36;;;;;;;0.68;0.45;;;16.00;64.00;;;;;;6342007;22;20448;-71
2021/01/30 05:41:43;;;;;;;0.43;0.40;;;16.00;64.00;;;;;;6338124;22;20366;-71
2021/01/30 05:44:17;;;;;;;0.77;0.50;;;16.00;64.00;;;;;;6313916;22;20616;-71
2021/01/30 05:46:48;;;;;;;0.70;0.47;;;16.00;64.00;;;;;;6339407;22;20420;-71
2021/01/30 05:49:17;;;;;;;0.98;0.70;;;16.00;64.00;;;;;;6339122;22;20001;-71
2021/01/30 05:52:00;;;;;;;0.60;0.43;;;16.00;64.00;;;;;;6339215;22;20359;-71
2021/01/30 05:54:26;;;;;;;0.52;0.40;;;16.00;64.00;;;;;;6339697;22;20011;-72
2021/01/30 05:56:52;;;;;;;0.43;0.38;;;16.00;64.00;;;;;;6338636;22;20022;-71
2021/01/30 05:59:25;;;;;;;0.75;0.47;;;16.00;64.00;;;;;;6339351;22;20081;-72
2021/01/30 06:01:53;;;;;;;0.43;0.38;;;16.00;64.00;;;;;;6337422;22;19999;-71
2021/01/30 06:04:27;;;;;;;0.77;0.50;;;16.00;64.00;;;;;;6338925;22;20037;-71
2021/01/30 06:06:56;;;;;;;0.65;0.50;;;16.00;64.00;;;;;;6363766;22;19998;-71
2021/01/30 06:09:36;;;;;;;0.35;0.32;;;16.00;63.90;;;;;;6339395;22;20054;-71
2021/01/30 06:12:36;;;;;;;0.40;0.40;;;16.00;63.90;;;;;;6337400;22;19995;-72
2021/01/30 06:15:14;;;;;;;0.68;0.50;;;16.00;63.90;;;;;;6338663;22;20006;-71
2021/01/30 06:17:41;;;;;;;0.40;0.32;;;16.00;63.90;;;;;;6339220;22;19991;-71
2021/01/30 06:20:25;;;;;;;1.95;0.50;;;16.00;63.90;;;;;;6338686;22;20081;-71
2021/01/30 06:23:09;;;;;;;0.30;0.30;;;16.00;63.90;;;;;;6338285;22;19995;-71
2021/01/30 06:25:41;;;;;;;0.30;0.30;;;16.00;63.90;;;;;;6337614;22;20024;-71
2021/01/30 06:28:28;;;;;;;0.30;0.30;;;16.00;63.90;;;;;;6337135;22;20406;-71
2021/01/30 06:31:07;;;;;;;0.30;0.25;;;16.00;63.90;;;;;;6338654;22;20002;-71
2021/01/30 06:33:35;;;;;;;;;;;16.00;63.90;;;;;;6339653;22;19999;-71
2021/01/30 06:36:28;;;;;;;1.27;0.43;;;16.00;63.90;;;;;;6338368;22;19918;-71
2021/01/30 06:39:06;;;;;;;0.43;0.30;;;16.00;63.90;;;;;;6338127;22;20124;-71
2021/01/30 06:41:33;;;;;;;1.55;0.40;;;16.00;64.00;;;;;;6338565;22;20099;-71
2021/01/30 06:44:04;;;;;;;0.63;0.57;;;16.00;64.00;;;;;;6338595;22;20021;-72
2021/01/30 06:46:30;;;;;;;0.30;0.30;;;16.00;64.00;;;;;;6310478;22;20129;-71
2021/01/30 06:49:14;;;;;;;0.40;0.30;;;16.00;64.00;;;;;;6339523;22;20014;-71
2021/01/30 06:51:40;;;;;;;0.40;0.40;;;16.00;64.00;;;;;;6338671;22;20033;-71
2021/01/30 06:54:27;;;;;;;0.30;0.30;;;16.00;64.00;;;;;;6336896;22;20417;-72
2021/01/30 06:56:59;;;;;;;0.40;0.40;;;16.00;64.00;;;;;;6338618;22;19995;-71
2021/01/30 06:59:31;;;;;;;0.50;0.40;;;16.00;64.00;;;;;;6337995;22;19995;-72
2021/01/30 07:01:58;;;;;;;0.30;0.30;;;16.00;64.00;;;;;;6338469;22;19995;-72
2021/01/30 07:04:47;;;;;;;1.17;0.52;;;16.00;64.00;;;;;;6310361;22;20007;-71
2021/01/30 07:07:23;;;;;;;0.40;0.30;;;16.00;64.00;;;;;;6337868;22;20002;-72
2021/01/30 07:09:54;;;;;;;0.73;0.70;;;16.00;63.90;;;;;;6338620;22;20065;-71
2021/01/30 07:12:36;;;;;;;0.25;0.25;;;16.00;63.90;;;;;;6338662;22;20002;-71
2021/01/30 07:15:26;;;;;;;0.57;0.43;;;16.10;63.90;;;;;;6310539;22;20337;-71
2021/01/30 07:17:52;;;;;;;0.40;0.38;;;16.00;63.90;;;;;;6311168;22;19999;-71
2021/01/30 07:20:25;;;;;;;0.50;0.40;;;16.00;63.90;;;;;;6338776;22;20034;-72
2021/01/30 07:23:08;;;;;;;0.75;0.30;;;16.00;63.90;;;;;;6337945;22;19995;-71
2021/01/30 07:26:12;;;;;;;0.38;0.35;;;16.00;63.90;;;;;;6310276;22;20007;-72
2021/01/30 07:28:58;;;;;;;0.30;0.30;;;16.00;63.90;;;;;;6277535;22;20058;-72
2021/01/30 07:31:31;;;;;;;0.20;0.20;;;16.00;63.90;;;;;;6310206;22;19999;-71
2021/01/30 07:34:06;;;;;;;0.40;0.40;;;16.00;63.90;;;;;;6338264;22;19999;-72
2021/01/30 07:37:01;;;;;;;0.60;0.20;;;16.10;63.90;;;;;;6338590;22;20026;-72
2021/01/30 07:39:47;;;;;;;0.30;0.30;;;16.10;63.80;;;;;;6297555;22;20160;-72
2021/01/30 07:42:20;;;;;;;0.47;0.30;;;16.10;63.80;;;;;;6338279;22;20003;-72
2021/01/30 07:45:06;;;;;;;0.90;0.35;;;16.10;63.80;;;;;;6335576;22;20002;-72
2021/01/30 07:47:44;;;;;;;0.30;0.30;;;16.10;63.80;;;;;;6337814;22;20002;-72
2021/01/30 07:50:25;;;;;;;0.45;0.25;;;16.10;63.70;;;;;;6338037;22;20297;-72
2021/01/30 07:52:59;;;;;;;0.30;0.30;;;16.10;63.70;;;;;;6336671;22;20003;-72
2021/01/30 07:55:25;;;;;;;0.43;0.43;;;16.10;63.70;;;;;;6336861;22;20011;-71
2021/01/30 07:58:02;;;;;;;0.30;0.30;;;16.10;63.70;;;;;;6338345;22;19999;-71
2021/01/30 08:00:38;;;;;;;0.35;0.35;;;16.10;63.70;;;;;;6338203;22;20006;-71
2021/01/30 08:03:27;;;;;;;1.48;0.50;;;16.10;63.70;;;;;;6336754;22;20412;-72
2021/01/30 08:06:08;;;;;;;0.93;0.30;;;16.10;63.60;;;;;;6337790;22;20057;-71
2021/01/30 08:08:55;;;;;;;0.30;0.30;;;16.10;63.60;;;;;;6336649;22;20003;-71
2021/01/30 08:11:30;;;;;;;1.10;0.23;;;16.10;63.60;;;;;;6337003;22;20005;-72
2021/01/30 08:14:19;;;;;;;0.70;0.30;;;16.10;63.60;;;;;;6337997;22;20244;-72
2021/01/30 08:17:26;;;;;;;0.50;0.30;;;16.10;63.60;;;;;;6336744;22;19990;-72
2021/01/30 08:19:56;;;;;;;0.30;0.30;;;16.10;63.50;;;;;;6273150;22;20139;-72
2021/01/30 08:22:29;;;;;;;0.38;0.28;;;16.10;63.50;;;;;;6272147;22;20004;-72
2021/01/30 08:25:06;;;;;;;1.27;0.40;;;16.20;63.50;;;;;;6272348;22;20510;-72
2021/01/30 08:27:36;;;;;;;0.47;0.30;;;16.10;63.50;;;;;;6272335;22;20007;-72
2021/01/30 08:30:07;;;;;;;0.30;0.30;;;16.20;63.50;;;;;;6271040;22;20000;-72
2021/01/30 08:32:37;;;;;;;0.35;0.35;;;16.10;63.50;;;;;;6272805;22;20102;-72
2021/01/30 08:35:21;;;;;;;0.68;0.38;;;16.10;63.50;;;;;;6272895;22;20064;-72
2021/01/30 08:38:05;;;;;;;0.40;0.30;;;16.10;63.50;;;;;;6271913;22;20022;-72
2021/01/30 08:40:53;;;;;;;0.30;0.30;;;16.20;63.50;;;;;;6274329;22;19999;-72
2021/01/30 08:43:45;;;;;;;0.40;0.40;;;16.10;63.40;;;;;;6275542;22;20003;-72
2021/01/30 08:46:37;;;;;;;0.30;0.28;;;16.10;63.40;;;;;;6275208;22;20058;-72
2021/01/30 08:49:22;;;;;;;0.52;0.38;;;16.20;63.40;;;;;;6262670;22;20335;-72
2021/01/30 08:52:09;;;;;;;0.52;0.47;;;16.20;63.40;;;;;;6339806;22;19999;-72
2021/01/30 08:54:41;;;;;;;0.57;0.30;;;16.20;63.40;;;;;;6341302;22;20003;-72
2021/01/30 08:57:32;;;;;;;0.40;0.40;;;16.10;63.30;;;;;;6341168;22;19995;-72
2021/01/30 09:00:27;;;;;;;0.80;0.45;;;16.20;63.30;;;;;;6340519;22;20029;-72
2021/01/30 09:02:52;;;;;;;0.40;0.40;;;16.20;63.20;;;;;;6311384;22;20006;-72
2021/01/30 09:05:21;;;;;;;0.43;0.40;;;16.20;63.20;;;;;;6341035;22;20003;-72
2021/01/30 09:07:48;;;;;;;;;;;16.20;63.20;;;;;;6339780;22;20034;-72
2021/01/30 09:10:22;;;;;;;0.25;0.25;;;16.20;63.20;;;;;;6340921;22;19903;-72
2021/01/30 09:13:00;;;;;;;0.40;0.40;;;16.20;63.20;;;;;;6339197;22;20009;-72
2021/01/30 09:15:40;;;;;;;1.13;0.45;;;16.20;63.30;;;;;;6340258;22;20440;-72
2021/01/30 09:18:28;;;;;;;0.63;0.20;;;16.20;63.20;;;;;;6340384;22;20429;-72
2021/01/30 09:20:53;;;;;;;0.30;0.30;;;16.20;63.20;;;;;;6340158;22;19999;-72
2021/01/30 09:23:28;;;;;;;1.27;1.08;;;16.20;63.20;;;;;;6337951;22;20451;-72
2021/01/30 09:26:05;;;;;;;0.63;0.30;;;16.30;63.10;;;;;;6340612;22;20472;-73
2021/01/30 09:28:33;;;;;;;0.22;0.20;;;16.30;63.10;;;;;;6340808;22;20066;-72
2021/01/30 09:31:01;;;;;;;0.20;0.20;;;16.30;63.10;;;;;;6339555;22;19999;-72
2021/01/30 09:33:32;;;;;;;0.90;0.43;;;16.20;63.00;;;;;;6340272;22;20369;-72
2021/01/30 09:36:16;;;;;;;0.30;0.30;;;16.30;63.00;;;;;;6340311;22;20009;-72
2021/01/30 09:38:49;;;;;;;2.20;0.30;;;16.30;63.00;;;;;;6338588;22;20332;-72
2021/01/30 09:41:24;;;;;;;0.47;0.40;;;16.30;62.90;;;;;;6340454;22;19991;-72
2021/01/30 09:44:10;;;;;;;0.55;0.40;;;16.30;63.00;;;;;;6339697;22;20010;-72
2021/01/30 09:46:39;;;;;;;0.55;0.30;;;16.30;62.90;;;;;;6338472;22;19995;-72
2021/01/30 09:49:14;;;;;;;0.30;0.30;;;16.30;62.90;;;;;;6341348;22;20083;-72
2021/01/30 09:51:41;;;;;;;0.30;0.30;;;16.30;62.80;;;;;;6337862;22;19998;-72
2021/01/30 09:54:11;;;;;;;0.25;0.25;;;16.30;62.80;;;;;;6339192;22;20379;-72
2021/01/30 09:56:37;;;;;;;0.30;0.30;;;16.30;62.80;;;;;;6338691;22;20001;-72
2021/01/30 09:59:05;;;;;;;0.30;0.30;;;16.30;62.70;;;;;;6363856;22;20038;-72
2021/01/30 10:01:38;;;;;;;;;;;16.30;62.70;;;;;;6364567;22;20029;-72
2021/01/30 10:04:21;;;;;;;0.25;0.25;;;16.30;62.70;;;;;;6338997;22;20224;-72
2021/01/30 10:06:47;;;;;;;0.88;0.20;;;16.30;62.70;;;;;;6337587;22;20317;-72
2021/01/30 10:09:24;;;;;;;0.28;0.25;;;16.30;62.70;;;;;;6338802;22;20003;-72
2021/01/30 10:12:00;;;;;;;0.20;0.20;;;16.40;62.70;;;;;;6339287;22;20002;-72
2021/01/30 10:14:49;;;;;;;0.80;0.45;;;16.30;62.70;;;;;;6338820;22;20094;-72
2021/01/30 10:17:45;;;;;;;0.55;0.30;;;16.30;62.60;;;;;;6363466;22;20084;-72
2021/01/30 10:20:21;;;;;;;0.30;0.25;;;16.30;62.60;;;;;;6336343;22;20009;-72
2021/01/30 10:22:53;;;;;;;0.98;0.30;;;16.30;62.60;;;;;;6336413;22;19995;-72
2021/01/30 10:25:27;;;;;;;0.40;0.32;;;16.40;62.60;;;;;;6336589;22;20436;-72
2021/01/30 10:28:09;;;;;;;0.55;0.30;;;16.40;62.60;;;;;;6362234;22;19999;-72
2021/01/30 10:30:35;;;;;;;0.45;0.20;;;16.40;62.60;;;;;;6336605;22;20420;-72
2021/01/30 10:33:04;;;;;;;0.45;0.40;;;16.40;62.60;;;;;;6337494;22;19999;-72
2021/01/30 10:35:42;;;;;;;0.40;0.40;;;16.40;62.60;;;;;;6362811;22;20101;-72
2021/01/30 10:38:15;;;;;;;0.40;0.40;;;16.40;62.60;;;;;;6336613;22;20480;-72
2021/01/30 10:40:54;;;;;;;0.28;0.28;;;16.30;62.70;;;;;;6337126;22;20486;-72
2021/01/30 10:43:22;;;;;;;0.20;0.20;;;16.30;62.70;;;;;;6338750;22;19999;-72
2021/01/30 10:46:01;;;;;;;0.30;0.30;;;16.30;62.70;;;;;;6338661;22;20009;-72
2021/01/30 10:48:33;;;;;;;0.20;0.20;;;16.30;62.70;;;;;;6339037;22;20030;-72
2021/01/30 10:51:16;;;;;;;0.28;0.28;;;16.30;62.80;;;;;;6338128;22;20018;-72
2021/01/30 10:53:42;;;;;;;0.28;0.28;;;16.30;62.80;;;;;;6336527;22;19999;-72
2021/01/30 10:56:21;;;;;;;0.73;0.30;;;16.30;62.70;;;;;;6336332;22;20002;-72
2021/01/30 10:58:47;;;;;;;;;;;16.30;62.70;;;;;;6363515;22;20049;-72
2021/01/30 11:01:31;;;;;;;0.40;0.40;;;16.30;62.70;;;;;;6336437;22;19969;-72
2021/01/30 11:04:06;;;;;;;0.25;0.25;;;16.30;62.70;;;;;;6336530;22;19999;-72
2021/01/30 11:06:46;;;;;;;0.80;0.30;;;16.30;62.70;;;;;;6337794;22;20441;-72
2021/01/30 11:09:14;;;;;;;0.60;0.38;;;16.30;62.80;;;;;;6336195;22;19995;-72
2021/01/30 11:12:06;;;;;;;0.40;0.40;;;16.30;62.80;;;;;;6336945;22;20003;-72
2021/01/30 11:14:32;;;;;;;0.52;0.40;;;16.30;62.80;;;;;;6336561;22;20010;-72
2021/01/30 11:16:59;;;;;;;0.22;0.22;;;16.30;62.80;;;;;;6338727;22;20416;-72
2021/01/30 11:19:42;;;;;;;0.20;0.20;;;16.30;62.80;;;;;;6338539;22;20006;-72
2021/01/30 11:22:17;;;;;;;0.43;0.30;;;16.30;62.80;;;;;;6362481;22;20416;-72
2021/01/30 11:24:48;;;;;;;0.50;0.30;;;16.30;62.80;;;;;;6338799;22;20030;-72
2021/01/30 11:27:37;;;;;;;0.28;0.28;;;16.30;62.70;;;;;;6338463;22;20325;-72
2021/01/30 11:30:28;;;;;;;0.20;0.20;;;16.30;62.70;;;;;;6336900;22;20048;-73
2021/01/30 11:32:55;;;;;;;0.30;0.28;;;16.30;62.70;;;;;;6336867;22;20046;-72
2021/01/30 11:35:36;;;;;;;0.25;0.25;;;16.30;62.70;;;;;;6336561;22;20344;-72
2021/01/30 11:38:13;;;;;;;0.30;0.30;;;16.40;62.60;;;;;;6335865;22;20500;-72
2021/01/30 11:40:40;;;;;;;0.30;0.30;;;16.40;62.50;;;;;;6310744;22;20007;-72
2021/01/30 11:43:06;;;;;;;0.52;0.20;;;16.40;62.30;;;;;;6338523;22;19995;-72
2021/01/30 11:45:31;;;;;;;0.20;0.20;;;16.40;62.30;;;;;;6338141;22;20005;-72
2021/01/30 11:47:57;;;;;;;0.20;0.20;;;16.50;62.30;;;;;;6337606;22;19994;-72
2021/01/30 11:50:23;;;;;;;0.30;0.30;;;16.50;62.20;;;;;;6338515;22;20018;-72
2021/01/30 11:52:49;;;;;;;1.35;0.50;;;16.50;62.20;;;;;;6310337;22;20010;-72
2021/01/30 11:55:15;;;;;;;0.20;0.20;;;16.50;62.20;;;;;;6310356;22;20007;-72
2021/01/30 11:57:40;;;;;;;0.30;0.30;;;16.50;62.20;;;;;;6336803;22;20003;-72
2021/01/30 12:00:07;;;;;;;0.88;0.30;;;16.40;62.20;;;;;;6310542;22;19998;-73
2021/01/30 12:02:39;;;;;;;0.30;0.30;;;16.40;62.20;;;;;;6310527;22;19998;-72
2021/01/30 12:05:09;;;;;;;0.30;0.30;;;16.40;62.20;;;;;;6310494;22;20460;-72
2021/01/30 12:07:34;;;;;;;0.30;0.30;;;16.50;62.20;;;;;;6337710;22;20003;-72
2021/01/30 12:10:00;;;;;;;0.20;0.20;;;16.50;62.20;;;;;;6337749;22;20302;-72
2021/01/30 12:12:27;;;;;;;0.25;0.22;;;16.50;62.10;;;;;;6337546;22;20005;-72
2021/01/30 12:14:53;;;;;;;0.30;0.30;;;16.50;62.10;;;;;;6337292;22;20435;-72
2021/01/30 12:17:30;;;;;;;0.40;0.20;;;16.50;62.10;;;;;;6310335;22;19998;-72
2021/01/30 12:19:56;;;;;;;0.20;0.20;;;16.50;62.10;;;;;;6338876;22;20103;-72
2021/01/30 12:22:22;;;;;;;0.55;0.20;;;16.50;62.00;;;;;;6337751;22;20008;-72
2021/01/30 12:24:48;;;;;;;0.20;0.20;;;16.50;62.00;;;;;;6338451;22;20302;-74
2021/01/30 12:27:15;;;;;;;0.30;0.20;;;16.50;62.00;;;;;;6338184;22;20341;-72
2021/01/30 12:29:43;;;;;;;0.20;0.20;;;16.50;62.00;;;;;;6335050;22;20173;-72
2021/01/30 12:32:16;;;;;;;0.30;0.30;;;16.50;62.00;;;;;;6309565;22;20007;-72
2021/01/30 12:34:42;;;;;;;0.77;0.30;;;16.50;62.00;;;;;;6337476;22;20003;-72
2021/01/30 12:37:08;;;;;;;0.57;0.28;;;16.50;62.00;;;;;;6337395;22;20428;-72
2021/01/30 12:39:34;;;;;;;0.30;0.30;;;16.50;62.10;;;;;;6337337;22;20516;-72
2021/01/30 12:42:02;;;;;;;0.30;0.30;;;16.50;62.10;;;;;;6309550;22;20013;-72
2021/01/30 12:44:32;;;;;;;0.30;0.30;;;16.50;62.10;;;;;;6337681;22;19999;-72
2021/01/30 12:46:58;;;;;;;0.30;0.30;;;16.40;62.10;;;;;;6309762;22;20321;-72
2021/01/30 12:49:24;;;;;;;0.20;0.20;;;16.50;62.20;;;;;;6336942;22;20298;-72
2021/01/30 12:51:51;;;;;;;0.40;0.30;;;16.50;62.10;;;;;;6308937;22;20129;-72
2021/01/30 12:54:23;;;;;;;0.30;0.30;;;16.50;62.10;;;;;;6334573;22;20005;-72
2021/01/30 12:56:53;;;;;;;0.40;0.40;;;16.40;62.20;;;;;;6308821;22;20022;-72
2021/01/30 12:59:23;;;;;;;0.50;0.50;;;16.50;62.20;;;;;;6336773;22;20003;-72
2021/01/30 13:01:53;;;;;;;0.60;0.60;;;16.40;62.20;;;;;;6336738;22;20026;-72
2021/01/30 13:04:20;;;;;;;0.20;0.20;;;16.50;62.20;;;;;;6335454;22;20018;-72
2021/01/30 13:06:46;;;;;;;0.25;0.25;;;16.40;62.20;;;;;;6309528;22;20086;-72
2021/01/30 13:09:11;;;;;;;0.30;0.30;;;16.40;62.20;;;;;;6308734;22;20026;-72
2021/01/30 13:11:42;;;;;;;0.30;0.30;;;16.40;62.30;;;;;;6309698;22;20003;-72
2021/01/30 13:14:07;;;;;;;0.30;0.30;;;16.40;62.30;;;;;;6308805;22;20324;-72
2021/01/30 13:16:33;;;;;;;0.68;0.50;;;16.40;62.30;;;;;;6337449;22;19994;-72
2021/01/30 13:19:19;;;;;;;0.38;0.20;;;16.40;62.30;;;;;;6337721;22;20002;-72
2021/01/30 13:21:50;;;;;;;0.25;0.25;;;16.40;62.40;;;;;;6336212;22;19999;-72